sensor_id;sensor_type;location;lat;lon;timestamp;P1;durP1;ratioP1;P2;durP2;ratioP2
33714;SDS011;20043;50.998;4.754;2023-04-30T00:01:54;8.38;;;5.68;;
33714;SDS011;20043;50.998;4.754;2023-04-30T00:04:19;8.98;;;5.15;;
33714;SDS011;20043;50.998;4.754;2023-04-30T00:06:45;12.77;;;6.15;;
33714;SDS011;20043;50.998;4.754;2023-04-30T00:09:11;6.88;;;5.32;;
33714;SDS011;20043;50.998;4.754;2023-04-30T00:11:36;7.60;;;5.65;;
33714;SDS011;20043;50.998;4.754;2023-04-30T00:14:02;8.80;;;5.82;;
33714;SDS011;20043;50.998;4.754;2023-04-30T00:16:28;11.70;;;6.10;;
33714;SDS011;20043;50.998;4.754;2023-04-30T00:18:53;8.93;;;6.43;;
33714;SDS011;20043;50.998;4.754;2023-04-30T00:21:19;11.57;;;5.78;;
33714;SDS011;20043;50.998;4.754;2023-04-30T00:23:44;9.10;;;5.45;;
33714;SDS011;20043;50.998;4.754;2023-04-30T00:26:10;7.65;;;5.43;;
33714;SDS011;20043;50.998;4.754;2023-04-30T00:28:36;11.65;;;5.22;;
33714;SDS011;20043;50.998;4.754;2023-04-30T00:31:01;9.50;;;5.45;;
33714;SDS011;20043;50.998;4.754;2023-04-30T00:33:34;8.38;;;5.60;;
33714;SDS011;20043;50.998;4.754;2023-04-30T00:35:59;11.30;;;5.38;;
33714;SDS011;20043;50.998;4.754;2023-04-30T00:38:25;8.95;;;5.93;;
33714;SDS011;20043;50.998;4.754;2023-04-30T00:40:51;9.02;;;6.03;;
33714;SDS011;20043;50.998;4.754;2023-04-30T00:43:17;9.98;;;6.18;;
33714;SDS011;20043;50.998;4.754;2023-04-30T00:45:42;8.77;;;6.10;;
33714;SDS011;20043;50.998;4.754;2023-04-30T00:48:08;11.73;;;6.07;;
33714;SDS011;20043;50.998;4.754;2023-04-30T00:50:35;8.57;;;6.15;;
33714;SDS011;20043;50.998;4.754;2023-04-30T00:53:07;11.60;;;6.32;;
33714;SDS011;20043;50.998;4.754;2023-04-30T00:55:33;10.30;;;6.47;;
33714;SDS011;20043;50.998;4.754;2023-04-30T00:57:59;14.93;;;7.07;;
33714;SDS011;20043;50.998;4.754;2023-04-30T01:00:25;11.68;;;6.70;;
33714;SDS011;20043;50.998;4.754;2023-04-30T01:02:51;10.15;;;6.18;;
33714;SDS011;20043;50.998;4.754;2023-04-30T01:05:18;8.45;;;5.93;;
33714;SDS011;20043;50.998;4.754;2023-04-30T01:07:44;13.45;;;6.22;;
33714;SDS011;20043;50.998;4.754;2023-04-30T01:10:13;15.13;;;6.32;;
33714;SDS011;20043;50.998;4.754;2023-04-30T01:12:48;12.93;;;6.47;;
33714;SDS011;20043;50.998;4.754;2023-04-30T01:15:27;13.40;;;8.18;;
33714;SDS011;20043;50.998;4.754;2023-04-30T01:18:03;9.43;;;6.57;;
33714;SDS011;20043;50.998;4.754;2023-04-30T01:20:34;11.13;;;6.95;;
33714;SDS011;20043;50.998;4.754;2023-04-30T01:29:01;12.18;;;7.60;;
33714;SDS011;20043;50.998;4.754;2023-04-30T01:31:28;10.93;;;7.53;;
33714;SDS011;20043;50.998;4.754;2023-04-30T01:33:53;14.13;;;8.00;;
33714;SDS011;20043;50.998;4.754;2023-04-30T01:46:30;12.88;;;7.35;;
33714;SDS011;20043;50.998;4.754;2023-04-30T01:51:43;16.77;;;7.25;;
33714;SDS011;20043;50.998;4.754;2023-04-30T01:57:20;13.77;;;7.55;;
33714;SDS011;20043;50.998;4.754;2023-04-30T02:00:01;15.85;;;8.07;;
33714;SDS011;20043;50.998;4.754;2023-04-30T02:02:28;13.73;;;8.07;;
33714;SDS011;20043;50.998;4.754;2023-04-30T02:04:54;11.70;;;8.00;;
33714;SDS011;20043;50.998;4.754;2023-04-30T02:07:31;10.88;;;7.78;;
33714;SDS011;20043;50.998;4.754;2023-04-30T02:10:03;9.85;;;7.00;;
33714;SDS011;20043;50.998;4.754;2023-04-30T02:12:29;9.55;;;7.78;;
33714;SDS011;20043;50.998;4.754;2023-04-30T02:14:55;17.08;;;9.02;;
33714;SDS011;20043;50.998;4.754;2023-04-30T02:17:20;14.43;;;8.25;;
33714;SDS011;20043;50.998;4.754;2023-04-30T02:19:46;10.98;;;7.85;;
33714;SDS011;20043;50.998;4.754;2023-04-30T02:22:12;12.45;;;7.95;;
33714;SDS011;20043;50.998;4.754;2023-04-30T02:24:37;12.70;;;8.20;;
33714;SDS011;20043;50.998;4.754;2023-04-30T02:27:03;13.90;;;8.65;;
33714;SDS011;20043;50.998;4.754;2023-04-30T02:29:28;11.07;;;8.70;;
33714;SDS011;20043;50.998;4.754;2023-04-30T02:31:56;16.40;;;8.80;;
33714;SDS011;20043;50.998;4.754;2023-04-30T02:34:23;10.88;;;8.20;;
33714;SDS011;20043;50.998;4.754;2023-04-30T02:36:48;13.18;;;8.80;;
33714;SDS011;20043;50.998;4.754;2023-04-30T02:39:14;13.15;;;7.82;;
33714;SDS011;20043;50.998;4.754;2023-04-30T02:41:40;10.90;;;8.27;;
33714;SDS011;20043;50.998;4.754;2023-04-30T02:44:05;13.57;;;9.20;;
33714;SDS011;20043;50.998;4.754;2023-04-30T02:46:31;11.93;;;8.93;;
33714;SDS011;20043;50.998;4.754;2023-04-30T02:48:56;12.52;;;8.48;;
33714;SDS011;20043;50.998;4.754;2023-04-30T02:51:22;13.63;;;8.95;;
33714;SDS011;20043;50.998;4.754;2023-04-30T02:53:48;11.98;;;9.30;;
33714;SDS011;20043;50.998;4.754;2023-04-30T02:56:13;14.43;;;9.00;;
33714;SDS011;20043;50.998;4.754;2023-04-30T02:58:39;14.10;;;8.68;;
33714;SDS011;20043;50.998;4.754;2023-04-30T03:01:05;14.05;;;8.18;;
33714;SDS011;20043;50.998;4.754;2023-04-30T03:03:31;12.25;;;8.55;;
33714;SDS011;20043;50.998;4.754;2023-04-30T03:05:57;13.43;;;8.52;;
33714;SDS011;20043;50.998;4.754;2023-04-30T03:08:23;12.45;;;8.55;;
33714;SDS011;20043;50.998;4.754;2023-04-30T03:10:49;17.52;;;8.82;;
33714;SDS011;20043;50.998;4.754;2023-04-30T03:13:15;16.90;;;8.95;;
33714;SDS011;20043;50.998;4.754;2023-04-30T03:15:41;13.93;;;9.27;;
33714;SDS011;20043;50.998;4.754;2023-04-30T03:18:06;23.75;;;9.90;;
33714;SDS011;20043;50.998;4.754;2023-04-30T03:20:32;12.88;;;9.80;;
33714;SDS011;20043;50.998;4.754;2023-04-30T03:22:57;17.73;;;11.10;;
33714;SDS011;20043;50.998;4.754;2023-04-30T03:25:23;14.68;;;10.18;;
33714;SDS011;20043;50.998;4.754;2023-04-30T03:27:49;15.95;;;10.13;;
33714;SDS011;20043;50.998;4.754;2023-04-30T03:30:14;13.20;;;9.50;;
33714;SDS011;20043;50.998;4.754;2023-04-30T03:32:40;15.18;;;10.38;;
33714;SDS011;20043;50.998;4.754;2023-04-30T03:35:06;15.05;;;10.20;;
33714;SDS011;20043;50.998;4.754;2023-04-30T03:37:32;14.52;;;9.18;;
33714;SDS011;20043;50.998;4.754;2023-04-30T03:39:58;18.70;;;10.50;;
33714;SDS011;20043;50.998;4.754;2023-04-30T03:42:24;13.50;;;9.35;;
33714;SDS011;20043;50.998;4.754;2023-04-30T03:44:49;15.57;;;9.88;;
33714;SDS011;20043;50.998;4.754;2023-04-30T03:47:15;21.73;;;8.73;;
33714;SDS011;20043;50.998;4.754;2023-04-30T03:49:40;16.60;;;10.30;;
33714;SDS011;20043;50.998;4.754;2023-04-30T03:52:06;14.48;;;10.00;;
33714;SDS011;20043;50.998;4.754;2023-04-30T03:54:32;12.85;;;10.48;;
33714;SDS011;20043;50.998;4.754;2023-04-30T03:57:00;17.70;;;10.40;;
33714;SDS011;20043;50.998;4.754;2023-04-30T03:59:29;15.45;;;10.23;;
33714;SDS011;20043;50.998;4.754;2023-04-30T04:01:55;15.27;;;10.00;;
33714;SDS011;20043;50.998;4.754;2023-04-30T04:04:21;14.27;;;10.85;;
33714;SDS011;20043;50.998;4.754;2023-04-30T04:06:47;17.70;;;11.07;;
33714;SDS011;20043;50.998;4.754;2023-04-30T04:09:12;17.38;;;10.45;;
33714;SDS011;20043;50.998;4.754;2023-04-30T04:11:38;16.50;;;9.77;;
33714;SDS011;20043;50.998;4.754;2023-04-30T04:14:04;17.75;;;11.27;;
33714;SDS011;20043;50.998;4.754;2023-04-30T04:16:29;19.73;;;12.07;;
33714;SDS011;20043;50.998;4.754;2023-04-30T04:18:55;21.70;;;12.02;;
33714;SDS011;20043;50.998;4.754;2023-04-30T04:21:21;17.50;;;11.35;;
33714;SDS011;20043;50.998;4.754;2023-04-30T04:23:47;19.60;;;11.82;;
33714;SDS011;20043;50.998;4.754;2023-04-30T04:26:12;18.70;;;11.98;;
33714;SDS011;20043;50.998;4.754;2023-04-30T04:28:39;16.33;;;11.70;;
33714;SDS011;20043;50.998;4.754;2023-04-30T04:31:05;20.20;;;10.95;;
33714;SDS011;20043;50.998;4.754;2023-04-30T04:33:31;16.00;;;11.25;;
33714;SDS011;20043;50.998;4.754;2023-04-30T04:35:57;13.95;;;10.55;;
33714;SDS011;20043;50.998;4.754;2023-04-30T04:38:24;15.50;;;10.10;;
33714;SDS011;20043;50.998;4.754;2023-04-30T04:40:53;15.00;;;10.25;;
33714;SDS011;20043;50.998;4.754;2023-04-30T04:43:19;16.05;;;10.82;;
33714;SDS011;20043;50.998;4.754;2023-04-30T04:45:45;17.33;;;10.63;;
33714;SDS011;20043;50.998;4.754;2023-04-30T04:48:14;17.50;;;9.95;;
33714;SDS011;20043;50.998;4.754;2023-04-30T04:50:40;17.20;;;9.73;;
33714;SDS011;20043;50.998;4.754;2023-04-30T04:53:06;15.57;;;10.43;;
33714;SDS011;20043;50.998;4.754;2023-04-30T04:55:31;13.50;;;10.02;;
33714;SDS011;20043;50.998;4.754;2023-04-30T04:57:57;16.73;;;10.10;;
33714;SDS011;20043;50.998;4.754;2023-04-30T05:00:22;14.55;;;9.48;;
33714;SDS011;20043;50.998;4.754;2023-04-30T05:02:50;11.80;;;8.25;;
33714;SDS011;20043;50.998;4.754;2023-04-30T05:05:15;12.95;;;8.90;;
33714;SDS011;20043;50.998;4.754;2023-04-30T05:07:41;12.18;;;8.57;;
33714;SDS011;20043;50.998;4.754;2023-04-30T05:10:07;13.80;;;9.02;;
33714;SDS011;20043;50.998;4.754;2023-04-30T05:12:33;13.73;;;8.23;;
33714;SDS011;20043;50.998;4.754;2023-04-30T05:14:58;13.65;;;7.97;;
33714;SDS011;20043;50.998;4.754;2023-04-30T05:17:24;11.90;;;7.93;;
33714;SDS011;20043;50.998;4.754;2023-04-30T05:19:50;11.88;;;8.43;;
33714;SDS011;20043;50.998;4.754;2023-04-30T05:22:17;13.32;;;8.60;;
33714;SDS011;20043;50.998;4.754;2023-04-30T05:24:42;13.20;;;9.27;;
33714;SDS011;20043;50.998;4.754;2023-04-30T05:27:08;13.45;;;9.55;;
33714;SDS011;20043;50.998;4.754;2023-04-30T05:29:33;17.17;;;8.70;;
33714;SDS011;20043;50.998;4.754;2023-04-30T05:32:00;14.52;;;9.68;;
33714;SDS011;20043;50.998;4.754;2023-04-30T05:34:26;11.27;;;8.55;;
33714;SDS011;20043;50.998;4.754;2023-04-30T05:36:51;15.35;;;9.63;;
33714;SDS011;20043;50.998;4.754;2023-04-30T05:39:17;15.25;;;10.60;;
33714;SDS011;20043;50.998;4.754;2023-04-30T05:41:43;16.38;;;10.65;;
33714;SDS011;20043;50.998;4.754;2023-04-30T05:44:08;16.05;;;11.52;;
33714;SDS011;20043;50.998;4.754;2023-04-30T05:46:34;17.65;;;10.63;;
33714;SDS011;20043;50.998;4.754;2023-04-30T05:49:00;16.67;;;11.50;;
33714;SDS011;20043;50.998;4.754;2023-04-30T05:51:26;16.60;;;12.52;;
33714;SDS011;20043;50.998;4.754;2023-04-30T05:53:52;15.57;;;12.05;;
33714;SDS011;20043;50.998;4.754;2023-04-30T05:56:18;16.58;;;13.05;;
33714;SDS011;20043;50.998;4.754;2023-04-30T05:58:45;16.98;;;12.68;;
33714;SDS011;20043;50.998;4.754;2023-04-30T06:01:11;16.02;;;12.80;;
33714;SDS011;20043;50.998;4.754;2023-04-30T06:03:36;16.02;;;12.57;;
33714;SDS011;20043;50.998;4.754;2023-04-30T06:06:02;17.52;;;13.02;;
33714;SDS011;20043;50.998;4.754;2023-04-30T06:08:28;18.77;;;12.68;;
33714;SDS011;20043;50.998;4.754;2023-04-30T06:10:54;17.80;;;12.80;;
33714;SDS011;20043;50.998;4.754;2023-04-30T06:13:29;19.53;;;13.77;;
33714;SDS011;20043;50.998;4.754;2023-04-30T06:15:55;17.25;;;13.38;;
33714;SDS011;20043;50.998;4.754;2023-04-30T06:18:21;16.85;;;13.02;;
33714;SDS011;20043;50.998;4.754;2023-04-30T06:20:47;16.98;;;13.75;;
33714;SDS011;20043;50.998;4.754;2023-04-30T06:23:12;17.27;;;13.13;;
33714;SDS011;20043;50.998;4.754;2023-04-30T06:25:38;18.40;;;13.40;;
33714;SDS011;20043;50.998;4.754;2023-04-30T06:28:03;18.45;;;13.63;;
33714;SDS011;20043;50.998;4.754;2023-04-30T06:30:30;18.42;;;14.07;;
33714;SDS011;20043;50.998;4.754;2023-04-30T06:32:56;18.30;;;14.32;;
33714;SDS011;20043;50.998;4.754;2023-04-30T06:35:21;21.30;;;13.57;;
33714;SDS011;20043;50.998;4.754;2023-04-30T06:37:47;19.77;;;14.52;;
33714;SDS011;20043;50.998;4.754;2023-04-30T06:40:12;22.80;;;14.35;;
33714;SDS011;20043;50.998;4.754;2023-04-30T06:42:38;19.80;;;15.02;;
33714;SDS011;20043;50.998;4.754;2023-04-30T06:45:04;18.80;;;14.30;;
33714;SDS011;20043;50.998;4.754;2023-04-30T06:47:33;19.20;;;15.02;;
33714;SDS011;20043;50.998;4.754;2023-04-30T06:50:01;19.38;;;14.27;;
33714;SDS011;20043;50.998;4.754;2023-04-30T06:52:28;20.15;;;15.23;;
33714;SDS011;20043;50.998;4.754;2023-04-30T06:54:54;22.13;;;15.55;;
33714;SDS011;20043;50.998;4.754;2023-04-30T06:57:20;22.95;;;16.23;;
33714;SDS011;20043;50.998;4.754;2023-04-30T06:59:46;22.65;;;15.70;;
33714;SDS011;20043;50.998;4.754;2023-04-30T07:02:12;27.13;;;15.18;;
33714;SDS011;20043;50.998;4.754;2023-04-30T07:04:38;24.15;;;15.98;;
33714;SDS011;20043;50.998;4.754;2023-04-30T07:07:03;22.92;;;15.80;;
33714;SDS011;20043;50.998;4.754;2023-04-30T07:09:29;23.02;;;15.88;;
33714;SDS011;20043;50.998;4.754;2023-04-30T07:11:56;23.52;;;16.08;;
33714;SDS011;20043;50.998;4.754;2023-04-30T07:14:22;24.25;;;16.48;;
33714;SDS011;20043;50.998;4.754;2023-04-30T07:16:48;22.30;;;17.10;;
33714;SDS011;20043;50.998;4.754;2023-04-30T07:19:14;22.90;;;17.10;;
33714;SDS011;20043;50.998;4.754;2023-04-30T07:21:40;24.02;;;17.15;;
33714;SDS011;20043;50.998;4.754;2023-04-30T07:24:06;23.80;;;17.17;;
33714;SDS011;20043;50.998;4.754;2023-04-30T07:26:31;26.23;;;18.33;;
33714;SDS011;20043;50.998;4.754;2023-04-30T07:28:57;25.90;;;18.10;;
33714;SDS011;20043;50.998;4.754;2023-04-30T07:31:23;23.15;;;16.55;;
33714;SDS011;20043;50.998;4.754;2023-04-30T07:33:50;27.92;;;17.73;;
33714;SDS011;20043;50.998;4.754;2023-04-30T07:36:16;23.58;;;16.80;;
33714;SDS011;20043;50.998;4.754;2023-04-30T07:38:42;26.08;;;17.50;;
33714;SDS011;20043;50.998;4.754;2023-04-30T07:41:07;23.00;;;17.35;;
33714;SDS011;20043;50.998;4.754;2023-04-30T07:43:34;22.50;;;16.98;;
33714;SDS011;20043;50.998;4.754;2023-04-30T07:46:00;26.90;;;17.90;;
33714;SDS011;20043;50.998;4.754;2023-04-30T07:48:26;24.20;;;17.52;;
33714;SDS011;20043;50.998;4.754;2023-04-30T07:50:51;24.35;;;17.08;;
33714;SDS011;20043;50.998;4.754;2023-04-30T07:53:17;23.42;;;17.33;;
33714;SDS011;20043;50.998;4.754;2023-04-30T07:55:43;23.85;;;16.63;;
33714;SDS011;20043;50.998;4.754;2023-04-30T07:58:08;25.20;;;17.35;;
33714;SDS011;20043;50.998;4.754;2023-04-30T08:00:34;21.90;;;16.48;;
33714;SDS011;20043;50.998;4.754;2023-04-30T08:03:00;21.25;;;16.13;;
33714;SDS011;20043;50.998;4.754;2023-04-30T08:05:25;22.75;;;16.77;;
33714;SDS011;20043;50.998;4.754;2023-04-30T08:07:51;24.42;;;16.60;;
33714;SDS011;20043;50.998;4.754;2023-04-30T08:10:17;21.67;;;16.17;;
33714;SDS011;20043;50.998;4.754;2023-04-30T08:12:43;22.73;;;16.45;;
33714;SDS011;20043;50.998;4.754;2023-04-30T08:15:08;24.02;;;16.65;;
33714;SDS011;20043;50.998;4.754;2023-04-30T08:17:34;23.08;;;16.83;;
33714;SDS011;20043;50.998;4.754;2023-04-30T08:20:02;25.30;;;17.50;;
33714;SDS011;20043;50.998;4.754;2023-04-30T08:22:28;23.48;;;16.38;;
33714;SDS011;20043;50.998;4.754;2023-04-30T08:24:54;20.70;;;16.15;;
33714;SDS011;20043;50.998;4.754;2023-04-30T08:27:20;23.30;;;16.08;;
33714;SDS011;20043;50.998;4.754;2023-04-30T08:29:46;20.98;;;16.90;;
33714;SDS011;20043;50.998;4.754;2023-04-30T08:32:12;23.70;;;16.73;;
33714;SDS011;20043;50.998;4.754;2023-04-30T08:34:38;22.05;;;16.52;;
33714;SDS011;20043;50.998;4.754;2023-04-30T08:37:11;23.65;;;16.00;;
33714;SDS011;20043;50.998;4.754;2023-04-30T08:39:43;23.05;;;16.70;;
33714;SDS011;20043;50.998;4.754;2023-04-30T08:42:09;20.15;;;15.55;;
33714;SDS011;20043;50.998;4.754;2023-04-30T08:44:38;23.90;;;14.95;;
33714;SDS011;20043;50.998;4.754;2023-04-30T08:47:07;22.13;;;14.82;;
33714;SDS011;20043;50.998;4.754;2023-04-30T08:49:37;21.20;;;15.32;;
33714;SDS011;20043;50.998;4.754;2023-04-30T08:52:03;18.60;;;14.75;;
33714;SDS011;20043;50.998;4.754;2023-04-30T08:54:32;16.77;;;13.00;;
33714;SDS011;20043;50.998;4.754;2023-04-30T08:56:59;16.77;;;13.07;;
33714;SDS011;20043;50.998;4.754;2023-04-30T08:59:25;16.90;;;12.82;;
33714;SDS011;20043;50.998;4.754;2023-04-30T09:01:51;18.48;;;12.57;;
33714;SDS011;20043;50.998;4.754;2023-04-30T09:04:16;13.75;;;11.23;;
33714;SDS011;20043;50.998;4.754;2023-04-30T09:06:42;15.20;;;10.85;;
33714;SDS011;20043;50.998;4.754;2023-04-30T09:09:09;12.90;;;10.05;;
33714;SDS011;20043;50.998;4.754;2023-04-30T09:11:37;12.32;;;10.02;;
33714;SDS011;20043;50.998;4.754;2023-04-30T09:14:03;13.07;;;9.70;;
33714;SDS011;20043;50.998;4.754;2023-04-30T09:16:29;15.70;;;10.05;;
33714;SDS011;20043;50.998;4.754;2023-04-30T09:19:21;14.48;;;10.40;;
33714;SDS011;20043;50.998;4.754;2023-04-30T09:21:51;13.40;;;10.15;;
33714;SDS011;20043;50.998;4.754;2023-04-30T09:24:17;11.50;;;9.48;;
33714;SDS011;20043;50.998;4.754;2023-04-30T09:26:44;15.65;;;9.23;;
33714;SDS011;20043;50.998;4.754;2023-04-30T09:29:11;12.88;;;8.65;;
33714;SDS011;20043;50.998;4.754;2023-04-30T09:31:38;12.70;;;9.95;;
33714;SDS011;20043;50.998;4.754;2023-04-30T09:34:06;15.20;;;9.25;;
33714;SDS011;20043;50.998;4.754;2023-04-30T09:36:32;14.10;;;8.70;;
33714;SDS011;20043;50.998;4.754;2023-04-30T09:39:05;17.17;;;9.35;;
33714;SDS011;20043;50.998;4.754;2023-04-30T09:41:31;14.43;;;8.73;;
33714;SDS011;20043;50.998;4.754;2023-04-30T09:43:56;13.25;;;9.20;;
33714;SDS011;20043;50.998;4.754;2023-04-30T09:46:32;12.95;;;8.15;;
33714;SDS011;20043;50.998;4.754;2023-04-30T09:49:00;11.07;;;7.47;;
33714;SDS011;20043;50.998;4.754;2023-04-30T09:51:26;10.90;;;8.18;;
33714;SDS011;20043;50.998;4.754;2023-04-30T09:53:52;13.98;;;8.93;;
33714;SDS011;20043;50.998;4.754;2023-04-30T09:56:20;12.02;;;8.70;;
33714;SDS011;20043;50.998;4.754;2023-04-30T09:58:51;12.50;;;8.27;;
33714;SDS011;20043;50.998;4.754;2023-04-30T10:01:18;9.40;;;8.07;;
33714;SDS011;20043;50.998;4.754;2023-04-30T10:03:51;13.63;;;8.18;;
33714;SDS011;20043;50.998;4.754;2023-04-30T10:06:17;11.35;;;7.43;;
33714;SDS011;20043;50.998;4.754;2023-04-30T10:08:52;10.63;;;6.78;;
33714;SDS011;20043;50.998;4.754;2023-04-30T10:11:21;10.88;;;7.78;;
33714;SDS011;20043;50.998;4.754;2023-04-30T10:19:29;10.98;;;6.80;;
33714;SDS011;20043;50.998;4.754;2023-04-30T10:21:57;9.65;;;7.85;;
33714;SDS011;20043;50.998;4.754;2023-04-30T10:24:23;11.90;;;7.63;;
33714;SDS011;20043;50.998;4.754;2023-04-30T10:26:49;13.77;;;7.82;;
33714;SDS011;20043;50.998;4.754;2023-04-30T10:29:15;10.48;;;7.53;;
33714;SDS011;20043;50.998;4.754;2023-04-30T10:31:42;8.68;;;6.75;;
33714;SDS011;20043;50.998;4.754;2023-04-30T10:37:06;9.82;;;6.30;;
33714;SDS011;20043;50.998;4.754;2023-04-30T10:39:40;10.70;;;5.63;;
33714;SDS011;20043;50.998;4.754;2023-04-30T10:42:08;9.48;;;6.38;;
33714;SDS011;20043;50.998;4.754;2023-04-30T10:44:37;10.95;;;6.47;;
33714;SDS011;20043;50.998;4.754;2023-04-30T10:47:03;6.90;;;5.20;;
33714;SDS011;20043;50.998;4.754;2023-04-30T10:49:30;7.35;;;5.65;;
33714;SDS011;20043;50.998;4.754;2023-04-30T10:52:00;8.73;;;5.80;;
33714;SDS011;20043;50.998;4.754;2023-04-30T10:54:28;8.20;;;5.22;;
33714;SDS011;20043;50.998;4.754;2023-04-30T10:57:11;9.88;;;4.93;;
33714;SDS011;20043;50.998;4.754;2023-04-30T11:02:43;8.30;;;4.37;;
33714;SDS011;20043;50.998;4.754;2023-04-30T11:05:14;6.88;;;4.13;;
33714;SDS011;20043;50.998;4.754;2023-04-30T11:07:45;7.82;;;4.22;;
33714;SDS011;20043;50.998;4.754;2023-04-30T11:10:14;5.47;;;4.13;;
33714;SDS011;20043;50.998;4.754;2023-04-30T11:12:40;5.38;;;4.03;;
33714;SDS011;20043;50.998;4.754;2023-04-30T11:15:13;6.53;;;4.30;;
33714;SDS011;20043;50.998;4.754;2023-04-30T11:17:43;7.05;;;4.00;;
33714;SDS011;20043;50.998;4.754;2023-04-30T11:20:13;5.55;;;4.00;;
33714;SDS011;20043;50.998;4.754;2023-04-30T11:22:43;5.35;;;3.63;;
33714;SDS011;20043;50.998;4.754;2023-04-30T11:25:09;4.35;;;3.25;;
33714;SDS011;20043;50.998;4.754;2023-04-30T11:27:42;4.88;;;3.47;;
33714;SDS011;20043;50.998;4.754;2023-04-30T11:30:13;3.83;;;2.78;;
33714;SDS011;20043;50.998;4.754;2023-04-30T11:32:40;4.80;;;2.60;;
33714;SDS011;20043;50.998;4.754;2023-04-30T11:35:11;6.63;;;2.50;;
33714;SDS011;20043;50.998;4.754;2023-04-30T11:37:39;4.35;;;2.78;;
33714;SDS011;20043;50.998;4.754;2023-04-30T11:40:07;4.47;;;2.30;;
33714;SDS011;20043;50.998;4.754;2023-04-30T11:42:37;5.60;;;2.92;;
33714;SDS011;20043;50.998;4.754;2023-04-30T11:45:08;5.70;;;2.95;;
33714;SDS011;20043;50.998;4.754;2023-04-30T11:47:42;4.53;;;2.72;;
33714;SDS011;20043;50.998;4.754;2023-04-30T11:50:13;8.10;;;2.30;;
33714;SDS011;20043;50.998;4.754;2023-04-30T11:52:49;5.88;;;2.28;;
33714;SDS011;20043;50.998;4.754;2023-04-30T11:55:17;3.70;;;2.45;;
33714;SDS011;20043;50.998;4.754;2023-04-30T11:57:45;3.47;;;2.28;;
33714;SDS011;20043;50.998;4.754;2023-04-30T12:02:43;3.47;;;2.33;;
33714;SDS011;20043;50.998;4.754;2023-04-30T12:05:13;3.50;;;2.20;;
33714;SDS011;20043;50.998;4.754;2023-04-30T12:10:13;4.32;;;2.15;;
33714;SDS011;20043;50.998;4.754;2023-04-30T12:12:39;3.63;;;2.20;;
33714;SDS011;20043;50.998;4.754;2023-04-30T12:15:10;5.13;;;2.60;;
33714;SDS011;20043;50.998;4.754;2023-04-30T12:17:37;4.03;;;2.20;;
33714;SDS011;20043;50.998;4.754;2023-04-30T12:20:02;3.58;;;2.30;;
33714;SDS011;20043;50.998;4.754;2023-04-30T12:22:29;3.72;;;2.10;;
33714;SDS011;20043;50.998;4.754;2023-04-30T12:24:55;4.00;;;1.90;;
33714;SDS011;20043;50.998;4.754;2023-04-30T12:27:23;3.22;;;2.10;;
33714;SDS011;20043;50.998;4.754;2023-04-30T12:29:49;2.00;;;1.77;;
33714;SDS011;20043;50.998;4.754;2023-04-30T12:32:18;4.97;;;2.20;;
33714;SDS011;20043;50.998;4.754;2023-04-30T12:34:45;3.88;;;2.40;;
33714;SDS011;20043;50.998;4.754;2023-04-30T12:37:15;3.72;;;2.15;;
33714;SDS011;20043;50.998;4.754;2023-04-30T12:39:41;3.22;;;1.90;;
33714;SDS011;20043;50.998;4.754;2023-04-30T12:42:07;3.42;;;2.13;;
33714;SDS011;20043;50.998;4.754;2023-04-30T12:44:41;2.40;;;2.10;;
33714;SDS011;20043;50.998;4.754;2023-04-30T12:47:08;2.35;;;2.00;;
33714;SDS011;20043;50.998;4.754;2023-04-30T12:49:34;3.63;;;2.10;;
33714;SDS011;20043;50.998;4.754;2023-04-30T12:52:10;5.70;;;2.25;;
33714;SDS011;20043;50.998;4.754;2023-04-30T12:54:37;3.67;;;1.95;;
33714;SDS011;20043;50.998;4.754;2023-04-30T12:57:04;3.13;;;2.17;;
33714;SDS011;20043;50.998;4.754;2023-04-30T12:59:32;3.38;;;2.30;;
33714;SDS011;20043;50.998;4.754;2023-04-30T13:02:09;3.78;;;2.05;;
33714;SDS011;20043;50.998;4.754;2023-04-30T13:04:36;3.58;;;1.70;;
33714;SDS011;20043;50.998;4.754;2023-04-30T13:07:02;2.58;;;1.92;;
33714;SDS011;20043;50.998;4.754;2023-04-30T13:09:29;3.83;;;1.80;;
33714;SDS011;20043;50.998;4.754;2023-04-30T13:11:58;2.53;;;1.33;;
33714;SDS011;20043;50.998;4.754;2023-04-30T13:14:24;1.65;;;1.50;;
33714;SDS011;20043;50.998;4.754;2023-04-30T13:16:50;2.20;;;1.88;;
33714;SDS011;20043;50.998;4.754;2023-04-30T13:19:15;3.13;;;1.67;;
33714;SDS011;20043;50.998;4.754;2023-04-30T13:21:41;2.30;;;1.77;;
33714;SDS011;20043;50.998;4.754;2023-04-30T13:24:06;2.17;;;1.70;;
33714;SDS011;20043;50.998;4.754;2023-04-30T13:26:32;4.15;;;2.30;;
33714;SDS011;20043;50.998;4.754;2023-04-30T13:28:58;4.55;;;2.00;;
33714;SDS011;20043;50.998;4.754;2023-04-30T13:31:23;2.70;;;2.00;;
33714;SDS011;20043;50.998;4.754;2023-04-30T13:33:49;2.92;;;2.17;;
33714;SDS011;20043;50.998;4.754;2023-04-30T13:36:15;2.83;;;1.83;;
33714;SDS011;20043;50.998;4.754;2023-04-30T13:38:41;7.10;;;1.92;;
33714;SDS011;20043;50.998;4.754;2023-04-30T13:41:07;2.25;;;1.90;;
33714;SDS011;20043;50.998;4.754;2023-04-30T13:43:33;2.45;;;2.22;;
33714;SDS011;20043;50.998;4.754;2023-04-30T13:45:58;3.17;;;1.85;;
33714;SDS011;20043;50.998;4.754;2023-04-30T13:48:24;3.78;;;1.73;;
33714;SDS011;20043;50.998;4.754;2023-04-30T13:50:50;3.60;;;2.45;;
33714;SDS011;20043;50.998;4.754;2023-04-30T13:53:16;3.67;;;2.45;;
33714;SDS011;20043;50.998;4.754;2023-04-30T13:55:42;2.75;;;2.13;;
33714;SDS011;20043;50.998;4.754;2023-04-30T13:58:07;2.97;;;2.17;;
33714;SDS011;20043;50.998;4.754;2023-04-30T14:00:33;5.15;;;2.13;;
33714;SDS011;20043;50.998;4.754;2023-04-30T14:02:59;3.05;;;2.22;;
33714;SDS011;20043;50.998;4.754;2023-04-30T14:05:24;2.97;;;2.20;;
33714;SDS011;20043;50.998;4.754;2023-04-30T14:07:50;2.80;;;1.83;;
33714;SDS011;20043;50.998;4.754;2023-04-30T14:10:16;5.65;;;2.10;;
33714;SDS011;20043;50.998;4.754;2023-04-30T14:12:42;3.05;;;2.10;;
33714;SDS011;20043;50.998;4.754;2023-04-30T14:15:07;3.10;;;2.03;;
33714;SDS011;20043;50.998;4.754;2023-04-30T14:17:34;4.65;;;2.20;;
33714;SDS011;20043;50.998;4.754;2023-04-30T14:20:07;2.47;;;2.03;;
33714;SDS011;20043;50.998;4.754;2023-04-30T14:22:33;3.78;;;1.70;;
33714;SDS011;20043;50.998;4.754;2023-04-30T14:25:02;5.70;;;2.38;;
33714;SDS011;20043;50.998;4.754;2023-04-30T14:27:28;2.65;;;1.83;;
33714;SDS011;20043;50.998;4.754;2023-04-30T14:29:54;2.50;;;1.90;;
33714;SDS011;20043;50.998;4.754;2023-04-30T14:32:20;2.25;;;1.63;;
33714;SDS011;20043;50.998;4.754;2023-04-30T14:34:45;7.70;;;2.50;;
33714;SDS011;20043;50.998;4.754;2023-04-30T14:37:17;2.47;;;2.10;;
33714;SDS011;20043;50.998;4.754;2023-04-30T14:39:49;4.30;;;1.83;;
33714;SDS011;20043;50.998;4.754;2023-04-30T14:42:15;3.53;;;1.60;;
33714;SDS011;20043;50.998;4.754;2023-04-30T14:44:41;1.52;;;1.42;;
33714;SDS011;20043;50.998;4.754;2023-04-30T14:47:06;5.22;;;1.92;;
33714;SDS011;20043;50.998;4.754;2023-04-30T14:49:32;2.97;;;1.33;;
33714;SDS011;20043;50.998;4.754;2023-04-30T14:51:58;2.88;;;1.48;;
33714;SDS011;20043;50.998;4.754;2023-04-30T14:54:24;2.65;;;1.30;;
33714;SDS011;20043;50.998;4.754;2023-04-30T14:56:49;5.22;;;1.60;;
33714;SDS011;20043;50.998;4.754;2023-04-30T14:59:16;2.35;;;1.33;;
33714;SDS011;20043;50.998;4.754;2023-04-30T15:01:42;2.10;;;1.70;;
33714;SDS011;20043;50.998;4.754;2023-04-30T15:04:07;1.83;;;1.13;;
33714;SDS011;20043;50.998;4.754;2023-04-30T15:06:33;2.00;;;1.50;;
33714;SDS011;20043;50.998;4.754;2023-04-30T15:08:59;3.33;;;1.60;;
33714;SDS011;20043;50.998;4.754;2023-04-30T15:11:25;3.50;;;1.35;;
33714;SDS011;20043;50.998;4.754;2023-04-30T15:13:52;3.10;;;1.55;;